sensor_id;sensor_type;location;lat;lon;timestamp;P1;durP1;ratioP1;P2;durP2;ratioP2
13989;SDS011;7069;52.528;13.316;2023-06-10T00:00:05;3.97;;;3.58;;
13989;SDS011;7069;52.528;13.316;2023-06-10T00:02:32;4.13;;;3.72;;
13989;SDS011;7069;52.528;13.316;2023-06-10T00:04:59;4.78;;;3.65;;
13989;SDS011;7069;52.528;13.316;2023-06-10T00:07:25;8.52;;;4.50;;
13989;SDS011;7069;52.528;13.316;2023-06-10T00:09:52;10.05;;;4.28;;
13989;SDS011;7069;52.528;13.316;2023-06-10T00:12:21;7.28;;;4.65;;
13989;SDS011;7069;52.528;13.316;2023-06-10T00:14:48;6.63;;;4.18;;
13989;SDS011;7069;52.528;13.316;2023-06-10T00:17:17;5.07;;;3.97;;
13989;SDS011;7069;52.528;13.316;2023-06-10T00:19:43;5.32;;;4.05;;
13989;SDS011;7069;52.528;13.316;2023-06-10T00:22:12;7.05;;;4.32;;
13989;SDS011;7069;52.528;13.316;2023-06-10T00:24:39;8.25;;;4.80;;
13989;SDS011;7069;52.528;13.316;2023-06-10T00:27:07;9.15;;;5.25;;
13989;SDS011;7069;52.528;13.316;2023-06-10T00:29:35;7.68;;;4.28;;
13989;SDS011;7069;52.528;13.316;2023-06-10T00:32:01;4.00;;;3.65;;
13989;SDS011;7069;52.528;13.316;2023-06-10T00:34:28;11.25;;;4.90;;
13989;SDS011;7069;52.528;13.316;2023-06-10T00:36:55;6.78;;;4.20;;
13989;SDS011;7069;52.528;13.316;2023-06-10T00:39:21;8.13;;;5.13;;
13989;SDS011;7069;52.528;13.316;2023-06-10T00:41:48;6.25;;;4.03;;
13989;SDS011;7069;52.528;13.316;2023-06-10T00:44:15;7.95;;;4.78;;
13989;SDS011;7069;52.528;13.316;2023-06-10T00:46:43;7.70;;;4.78;;
13989;SDS011;7069;52.528;13.316;2023-06-10T00:49:10;4.60;;;4.18;;
13989;SDS011;7069;52.528;13.316;2023-06-10T00:51:37;7.60;;;4.20;;
13989;SDS011;7069;52.528;13.316;2023-06-10T00:54:04;6.95;;;4.28;;
13989;SDS011;7069;52.528;13.316;2023-06-10T00:56:31;7.65;;;4.53;;
13989;SDS011;7069;52.528;13.316;2023-06-10T00:58:59;4.88;;;4.28;;
13989;SDS011;7069;52.528;13.316;2023-06-10T01:01:26;3.83;;;3.47;;
13989;SDS011;7069;52.528;13.316;2023-06-10T01:03:54;7.00;;;4.90;;
13989;SDS011;7069;52.528;13.316;2023-06-10T01:06:24;7.60;;;3.85;;
13989;SDS011;7069;52.528;13.316;2023-06-10T01:08:57;8.73;;;4.60;;
13989;SDS011;7069;52.528;13.316;2023-06-10T01:14:07;7.18;;;4.13;;
13989;SDS011;7069;52.528;13.316;2023-06-10T01:16:34;6.90;;;4.07;;
13989;SDS011;7069;52.528;13.316;2023-06-10T01:19:02;6.80;;;4.18;;
13989;SDS011;7069;52.528;13.316;2023-06-10T01:21:30;8.07;;;4.10;;
13989;SDS011;7069;52.528;13.316;2023-06-10T01:23:57;6.82;;;4.30;;
13989;SDS011;7069;52.528;13.316;2023-06-10T01:26:24;7.22;;;4.15;;
13989;SDS011;7069;52.528;13.316;2023-06-10T01:28:53;8.32;;;4.13;;
13989;SDS011;7069;52.528;13.316;2023-06-10T01:31:23;8.40;;;4.40;;
13989;SDS011;7069;52.528;13.316;2023-06-10T01:33:59;8.32;;;3.83;;
13989;SDS011;7069;52.528;13.316;2023-06-10T01:36:27;8.05;;;4.78;;
13989;SDS011;7069;52.528;13.316;2023-06-10T01:38:56;4.35;;;3.83;;
13989;SDS011;7069;52.528;13.316;2023-06-10T01:41:22;5.82;;;3.80;;
13989;SDS011;7069;52.528;13.316;2023-06-10T01:43:49;7.15;;;3.97;;
13989;SDS011;7069;52.528;13.316;2023-06-10T01:46:35;5.53;;;3.95;;
13989;SDS011;7069;52.528;13.316;2023-06-10T01:49:02;7.70;;;4.93;;
13989;SDS011;7069;52.528;13.316;2023-06-10T01:51:29;6.53;;;4.68;;
13989;SDS011;7069;52.528;13.316;2023-06-10T01:53:56;6.68;;;4.05;;
13989;SDS011;7069;52.528;13.316;2023-06-10T01:56:23;6.32;;;4.32;;
13989;SDS011;7069;52.528;13.316;2023-06-10T01:58:50;9.05;;;4.50;;
13989;SDS011;7069;52.528;13.316;2023-06-10T02:01:16;9.77;;;4.53;;
13989;SDS011;7069;52.528;13.316;2023-06-10T02:03:44;6.50;;;4.22;;
13989;SDS011;7069;52.528;13.316;2023-06-10T02:06:11;4.88;;;3.95;;
13989;SDS011;7069;52.528;13.316;2023-06-10T02:08:38;6.15;;;4.20;;
13989;SDS011;7069;52.528;13.316;2023-06-10T02:11:05;7.40;;;5.25;;
13989;SDS011;7069;52.528;13.316;2023-06-10T02:13:32;6.18;;;4.05;;
13989;SDS011;7069;52.528;13.316;2023-06-10T02:15:59;4.78;;;3.83;;
13989;SDS011;7069;52.528;13.316;2023-06-10T02:18:26;4.90;;;4.15;;
13989;SDS011;7069;52.528;13.316;2023-06-10T02:20:54;6.57;;;3.90;;
13989;SDS011;7069;52.528;13.316;2023-06-10T02:23:21;7.05;;;4.10;;
13989;SDS011;7069;52.528;13.316;2023-06-10T02:25:48;4.38;;;3.58;;
13989;SDS011;7069;52.528;13.316;2023-06-10T02:28:14;9.27;;;4.00;;
13989;SDS011;7069;52.528;13.316;2023-06-10T02:30:41;7.18;;;4.10;;
13989;SDS011;7069;52.528;13.316;2023-06-10T02:33:08;7.05;;;5.00;;
13989;SDS011;7069;52.528;13.316;2023-06-10T02:35:36;6.82;;;4.47;;
13989;SDS011;7069;52.528;13.316;2023-06-10T02:38:04;5.10;;;4.18;;
13989;SDS011;7069;52.528;13.316;2023-06-10T02:40:31;5.22;;;4.07;;
13989;SDS011;7069;52.528;13.316;2023-06-10T02:42:57;7.55;;;4.32;;
13989;SDS011;7069;52.528;13.316;2023-06-10T02:45:24;7.00;;;4.40;;
13989;SDS011;7069;52.528;13.316;2023-06-10T02:47:51;4.65;;;3.90;;
13989;SDS011;7069;52.528;13.316;2023-06-10T02:50:20;7.47;;;3.60;;
13989;SDS011;7069;52.528;13.316;2023-06-10T02:52:48;8.70;;;4.53;;
13989;SDS011;7069;52.528;13.316;2023-06-10T02:55:16;6.85;;;4.20;;
13989;SDS011;7069;52.528;13.316;2023-06-10T02:57:43;5.43;;;3.72;;
13989;SDS011;7069;52.528;13.316;2023-06-10T03:00:10;8.13;;;4.68;;
13989;SDS011;7069;52.528;13.316;2023-06-10T03:02:39;7.95;;;4.45;;
13989;SDS011;7069;52.528;13.316;2023-06-10T03:05:06;7.72;;;4.60;;
13989;SDS011;7069;52.528;13.316;2023-06-10T03:07:35;9.07;;;5.43;;
13989;SDS011;7069;52.528;13.316;2023-06-10T03:10:02;6.80;;;4.05;;
13989;SDS011;7069;52.528;13.316;2023-06-10T03:12:30;9.88;;;5.43;;
13989;SDS011;7069;52.528;13.316;2023-06-10T03:14:57;5.03;;;4.32;;
13989;SDS011;7069;52.528;13.316;2023-06-10T03:17:23;7.38;;;4.80;;
13989;SDS011;7069;52.528;13.316;2023-06-10T03:19:50;8.38;;;4.35;;
13989;SDS011;7069;52.528;13.316;2023-06-10T03:22:17;8.82;;;5.15;;
13989;SDS011;7069;52.528;13.316;2023-06-10T03:24:44;7.18;;;4.80;;
13989;SDS011;7069;52.528;13.316;2023-06-10T03:27:12;10.02;;;4.95;;
13989;SDS011;7069;52.528;13.316;2023-06-10T03:29:41;7.57;;;4.78;;
13989;SDS011;7069;52.528;13.316;2023-06-10T03:32:08;12.15;;;4.65;;
13989;SDS011;7069;52.528;13.316;2023-06-10T03:34:35;7.63;;;4.38;;
13989;SDS011;7069;52.528;13.316;2023-06-10T03:37:02;6.35;;;4.55;;
13989;SDS011;7069;52.528;13.316;2023-06-10T03:39:28;12.60;;;5.40;;
13989;SDS011;7069;52.528;13.316;2023-06-10T03:41:55;6.28;;;4.82;;
13989;SDS011;7069;52.528;13.316;2023-06-10T03:44:24;7.88;;;4.53;;
13989;SDS011;7069;52.528;13.316;2023-06-10T03:46:52;10.75;;;5.35;;
13989;SDS011;7069;52.528;13.316;2023-06-10T03:49:18;8.93;;;4.40;;
13989;SDS011;7069;52.528;13.316;2023-06-10T03:51:45;8.35;;;4.95;;
13989;SDS011;7069;52.528;13.316;2023-06-10T03:54:11;10.13;;;4.78;;
13989;SDS011;7069;52.528;13.316;2023-06-10T03:56:38;7.18;;;5.80;;
13989;SDS011;7069;52.528;13.316;2023-06-10T03:59:05;6.18;;;5.28;;
13989;SDS011;7069;52.528;13.316;2023-06-10T04:01:32;7.85;;;4.43;;
13989;SDS011;7069;52.528;13.316;2023-06-10T04:04:00;7.30;;;4.80;;
13989;SDS011;7069;52.528;13.316;2023-06-10T04:06:26;6.20;;;5.60;;
13989;SDS011;7069;52.528;13.316;2023-06-10T04:08:54;6.28;;;4.90;;
13989;SDS011;7069;52.528;13.316;2023-06-10T04:11:21;9.18;;;5.30;;
13989;SDS011;7069;52.528;13.316;2023-06-10T04:13:49;8.38;;;4.53;;
13989;SDS011;7069;52.528;13.316;2023-06-10T04:16:15;7.03;;;4.55;;
13989;SDS011;7069;52.528;13.316;2023-06-10T04:18:42;5.60;;;4.43;;
13989;SDS011;7069;52.528;13.316;2023-06-10T04:21:10;5.35;;;4.53;;
13989;SDS011;7069;52.528;13.316;2023-06-10T04:23:36;5.78;;;4.72;;
13989;SDS011;7069;52.528;13.316;2023-06-10T04:26:03;8.52;;;5.13;;
13989;SDS011;7069;52.528;13.316;2023-06-10T04:28:30;6.80;;;4.57;;
13989;SDS011;7069;52.528;13.316;2023-06-10T04:30:57;4.93;;;3.85;;
13989;SDS011;7069;52.528;13.316;2023-06-10T04:33:24;5.82;;;5.30;;
13989;SDS011;7069;52.528;13.316;2023-06-10T04:35:50;7.53;;;5.10;;
13989;SDS011;7069;52.528;13.316;2023-06-10T04:38:18;9.20;;;5.20;;
13989;SDS011;7069;52.528;13.316;2023-06-10T04:40:45;7.10;;;4.80;;
13989;SDS011;7069;52.528;13.316;2023-06-10T04:43:12;11.20;;;5.32;;
13989;SDS011;7069;52.528;13.316;2023-06-10T04:45:39;8.63;;;5.40;;
13989;SDS011;7069;52.528;13.316;2023-06-10T04:48:06;11.38;;;5.82;;
13989;SDS011;7069;52.528;13.316;2023-06-10T04:50:33;9.70;;;5.30;;
13989;SDS011;7069;52.528;13.316;2023-06-10T04:52:59;6.90;;;4.95;;
13989;SDS011;7069;52.528;13.316;2023-06-10T04:55:27;7.20;;;4.60;;
13989;SDS011;7069;52.528;13.316;2023-06-10T04:57:54;10.20;;;6.75;;
13989;SDS011;7069;52.528;13.316;2023-06-10T05:00:21;8.10;;;5.20;;
13989;SDS011;7069;52.528;13.316;2023-06-10T05:02:47;5.75;;;4.75;;
13989;SDS011;7069;52.528;13.316;2023-06-10T05:05:14;6.35;;;5.43;;
13989;SDS011;7069;52.528;13.316;2023-06-10T05:07:41;13.93;;;5.13;;
13989;SDS011;7069;52.528;13.316;2023-06-10T05:10:08;11.07;;;5.93;;
13989;SDS011;7069;52.528;13.316;2023-06-10T05:12:38;7.00;;;5.35;;
13989;SDS011;7069;52.528;13.316;2023-06-10T05:15:05;6.70;;;4.53;;
13989;SDS011;7069;52.528;13.316;2023-06-10T05:17:32;10.35;;;5.70;;
13989;SDS011;7069;52.528;13.316;2023-06-10T05:20:00;6.10;;;4.57;;
13989;SDS011;7069;52.528;13.316;2023-06-10T05:22:26;7.28;;;4.88;;
13989;SDS011;7069;52.528;13.316;2023-06-10T05:24:53;9.52;;;5.50;;
13989;SDS011;7069;52.528;13.316;2023-06-10T05:27:20;7.40;;;4.88;;
13989;SDS011;7069;52.528;13.316;2023-06-10T05:29:48;6.47;;;5.72;;
13989;SDS011;7069;52.528;13.316;2023-06-10T05:32:16;7.85;;;5.00;;
13989;SDS011;7069;52.528;13.316;2023-06-10T05:34:43;6.78;;;5.55;;
13989;SDS011;7069;52.528;13.316;2023-06-10T05:37:10;6.57;;;5.32;;
13989;SDS011;7069;52.528;13.316;2023-06-10T05:39:36;12.00;;;6.28;;
13989;SDS011;7069;52.528;13.316;2023-06-10T05:42:04;6.97;;;5.43;;
13989;SDS011;7069;52.528;13.316;2023-06-10T05:44:31;7.55;;;6.03;;
13989;SDS011;7069;52.528;13.316;2023-06-10T05:46:59;8.82;;;5.18;;
13989;SDS011;7069;52.528;13.316;2023-06-10T05:49:26;9.25;;;6.03;;
13989;SDS011;7069;52.528;13.316;2023-06-10T05:51:53;7.00;;;5.82;;
13989;SDS011;7069;52.528;13.316;2023-06-10T05:54:21;5.85;;;5.05;;
13989;SDS011;7069;52.528;13.316;2023-06-10T05:56:47;11.30;;;6.70;;
13989;SDS011;7069;52.528;13.316;2023-06-10T05:59:14;7.07;;;5.53;;
13989;SDS011;7069;52.528;13.316;2023-06-10T06:01:40;9.00;;;5.72;;
13989;SDS011;7069;52.528;13.316;2023-06-10T06:04:08;6.07;;;4.97;;
13989;SDS011;7069;52.528;13.316;2023-06-10T06:06:35;8.52;;;5.72;;
13989;SDS011;7069;52.528;13.316;2023-06-10T06:09:02;10.65;;;5.90;;
13989;SDS011;7069;52.528;13.316;2023-06-10T06:11:29;10.90;;;5.95;;
13989;SDS011;7069;52.528;13.316;2023-06-10T06:13:56;10.50;;;5.63;;
13989;SDS011;7069;52.528;13.316;2023-06-10T06:16:22;6.13;;;4.78;;
13989;SDS011;7069;52.528;13.316;2023-06-10T06:18:49;7.53;;;5.38;;
13989;SDS011;7069;52.528;13.316;2023-06-10T06:21:17;8.20;;;5.70;;
13989;SDS011;7069;52.528;13.316;2023-06-10T06:23:44;5.93;;;5.05;;
13989;SDS011;7069;52.528;13.316;2023-06-10T06:26:10;9.02;;;6.57;;
13989;SDS011;7069;52.528;13.316;2023-06-10T06:28:37;8.60;;;5.15;;
13989;SDS011;7069;52.528;13.316;2023-06-10T06:31:03;9.75;;;6.35;;
13989;SDS011;7069;52.528;13.316;2023-06-10T06:33:30;6.72;;;5.57;;
13989;SDS011;7069;52.528;13.316;2023-06-10T06:35:56;7.13;;;5.38;;
13989;SDS011;7069;52.528;13.316;2023-06-10T06:38:26;9.40;;;6.15;;
13989;SDS011;7069;52.528;13.316;2023-06-10T06:40:53;8.80;;;6.38;;
13989;SDS011;7069;52.528;13.316;2023-06-10T06:43:20;7.13;;;5.82;;
13989;SDS011;7069;52.528;13.316;2023-06-10T06:45:46;6.68;;;5.45;;
13989;SDS011;7069;52.528;13.316;2023-06-10T06:48:13;6.18;;;5.57;;
13989;SDS011;7069;52.528;13.316;2023-06-10T06:50:39;9.70;;;5.95;;
13989;SDS011;7069;52.528;13.316;2023-06-10T06:53:07;6.03;;;4.65;;
13989;SDS011;7069;52.528;13.316;2023-06-10T06:55:35;5.75;;;4.85;;
13989;SDS011;7069;52.528;13.316;2023-06-10T06:58:02;7.38;;;6.28;;
13989;SDS011;7069;52.528;13.316;2023-06-10T07:00:29;5.68;;;5.10;;
13989;SDS011;7069;52.528;13.316;2023-06-10T07:02:55;7.63;;;6.07;;
13989;SDS011;7069;52.528;13.316;2023-06-10T07:05:23;9.10;;;6.10;;
13989;SDS011;7069;52.528;13.316;2023-06-10T07:07:50;9.07;;;5.90;;
13989;SDS011;7069;52.528;13.316;2023-06-10T07:10:20;8.23;;;6.95;;
13989;SDS011;7069;52.528;13.316;2023-06-10T07:12:48;9.88;;;6.25;;
13989;SDS011;7069;52.528;13.316;2023-06-10T07:15:15;7.22;;;5.53;;
13989;SDS011;7069;52.528;13.316;2023-06-10T07:17:41;7.93;;;6.32;;
13989;SDS011;7069;52.528;13.316;2023-06-10T07:20:08;5.88;;;5.22;;
13989;SDS011;7069;52.528;13.316;2023-06-10T07:22:35;9.18;;;5.97;;
13989;SDS011;7069;52.528;13.316;2023-06-10T07:25:04;13.18;;;6.22;;
13989;SDS011;7069;52.528;13.316;2023-06-10T07:27:30;6.53;;;5.45;;
13989;SDS011;7069;52.528;13.316;2023-06-10T07:29:58;5.78;;;5.25;;
13989;SDS011;7069;52.528;13.316;2023-06-10T07:32:26;8.77;;;6.35;;
13989;SDS011;7069;52.528;13.316;2023-06-10T07:34:53;7.78;;;6.13;;
13989;SDS011;7069;52.528;13.316;2023-06-10T07:37:20;9.00;;;6.22;;
13989;SDS011;7069;52.528;13.316;2023-06-10T07:39:46;8.45;;;6.03;;
13989;SDS011;7069;52.528;13.316;2023-06-10T07:42:13;7.70;;;6.15;;
13989;SDS011;7069;52.528;13.316;2023-06-10T07:44:40;9.80;;;6.50;;
13989;SDS011;7069;52.528;13.316;2023-06-10T07:47:08;6.90;;;5.95;;
13989;SDS011;7069;52.528;13.316;2023-06-10T07:49:34;7.10;;;6.35;;
13989;SDS011;7069;52.528;13.316;2023-06-10T07:52:01;9.77;;;6.45;;
13989;SDS011;7069;52.528;13.316;2023-06-10T07:54:27;9.95;;;5.88;;
13989;SDS011;7069;52.528;13.316;2023-06-10T07:56:54;6.57;;;5.97;;
13989;SDS011;7069;52.528;13.316;2023-06-10T07:59:20;9.57;;;6.10;;
13989;SDS011;7069;52.528;13.316;2023-06-10T08:01:47;11.55;;;6.88;;
13989;SDS011;7069;52.528;13.316;2023-06-10T08:04:14;7.93;;;6.32;;
13989;SDS011;7069;52.528;13.316;2023-06-10T08:06:41;9.50;;;5.88;;
13989;SDS011;7069;52.528;13.316;2023-06-10T08:09:07;7.47;;;6.47;;
13989;SDS011;7069;52.528;13.316;2023-06-10T08:11:34;13.07;;;6.63;;
13989;SDS011;7069;52.528;13.316;2023-06-10T08:14:00;8.18;;;6.03;;
13989;SDS011;7069;52.528;13.316;2023-06-10T08:16:26;8.45;;;6.50;;
13989;SDS011;7069;52.528;13.316;2023-06-10T08:18:53;12.48;;;6.60;;
13989;SDS011;7069;52.528;13.316;2023-06-10T08:21:21;8.10;;;7.05;;
13989;SDS011;7069;52.528;13.316;2023-06-10T08:23:47;8.60;;;7.68;;
13989;SDS011;7069;52.528;13.316;2023-06-10T08:26:14;8.98;;;6.80;;
13989;SDS011;7069;52.528;13.316;2023-06-10T08:28:40;8.45;;;6.63;;
13989;SDS011;7069;52.528;13.316;2023-06-10T08:31:07;9.68;;;6.55;;
13989;SDS011;7069;52.528;13.316;2023-06-10T08:33:33;11.10;;;7.53;;
13989;SDS011;7069;52.528;13.316;2023-06-10T08:36:00;8.45;;;7.65;;
13989;SDS011;7069;52.528;13.316;2023-06-10T08:38:28;8.02;;;6.47;;
13989;SDS011;7069;52.528;13.316;2023-06-10T08:40:55;8.25;;;5.72;;
13989;SDS011;7069;52.528;13.316;2023-06-10T08:43:25;9.52;;;6.43;;
13989;SDS011;7069;52.528;13.316;2023-06-10T08:45:55;7.50;;;6.80;;
13989;SDS011;7069;52.528;13.316;2023-06-10T08:48:24;11.07;;;6.72;;
13989;SDS011;7069;52.528;13.316;2023-06-10T08:50:53;10.80;;;6.05;;
13989;SDS011;7069;52.528;13.316;2023-06-10T08:53:20;7.05;;;6.38;;
13989;SDS011;7069;52.528;13.316;2023-06-10T08:55:50;12.55;;;6.80;;
13989;SDS011;7069;52.528;13.316;2023-06-10T08:58:17;8.32;;;6.95;;
13989;SDS011;7069;52.528;13.316;2023-06-10T09:00:44;8.90;;;6.20;;
13989;SDS011;7069;52.528;13.316;2023-06-10T09:03:11;9.80;;;6.90;;
13989;SDS011;7069;52.528;13.316;2023-06-10T09:05:37;8.85;;;5.80;;
13989;SDS011;7069;52.528;13.316;2023-06-10T09:08:06;6.32;;;5.82;;
13989;SDS011;7069;52.528;13.316;2023-06-10T09:10:33;6.85;;;5.80;;
13989;SDS011;7069;52.528;13.316;2023-06-10T09:13:01;6.45;;;5.85;;
13989;SDS011;7069;52.528;13.316;2023-06-10T09:15:27;8.30;;;6.28;;
13989;SDS011;7069;52.528;13.316;2023-06-10T09:17:53;7.13;;;6.43;;
13989;SDS011;7069;52.528;13.316;2023-06-10T09:20:20;10.70;;;6.00;;
13989;SDS011;7069;52.528;13.316;2023-06-10T09:22:46;9.70;;;6.75;;
13989;SDS011;7069;52.528;13.316;2023-06-10T09:25:13;7.90;;;5.75;;
13989;SDS011;7069;52.528;13.316;2023-06-10T09:27:45;9.07;;;6.47;;
13989;SDS011;7069;52.528;13.316;2023-06-10T09:30:24;7.65;;;6.43;;
13989;SDS011;7069;52.528;13.316;2023-06-10T09:32:52;7.78;;;6.60;;
13989;SDS011;7069;52.528;13.316;2023-06-10T09:35:19;6.18;;;5.55;;
13989;SDS011;7069;52.528;13.316;2023-06-10T09:37:45;10.18;;;7.07;;
13989;SDS011;7069;52.528;13.316;2023-06-10T09:40:12;7.13;;;6.40;;
13989;SDS011;7069;52.528;13.316;2023-06-10T09:42:38;9.18;;;6.40;;
13989;SDS011;7069;52.528;13.316;2023-06-10T09:45:05;12.45;;;6.45;;
13989;SDS011;7069;52.528;13.316;2023-06-10T09:47:33;6.30;;;5.78;;
13989;SDS011;7069;52.528;13.316;2023-06-10T09:50:00;6.47;;;5.70;;
13989;SDS011;7069;52.528;13.316;2023-06-10T09:52:27;7.82;;;7.03;;
13989;SDS011;7069;52.528;13.316;2023-06-10T09:54:55;10.20;;;7.05;;
13989;SDS011;7069;52.528;13.316;2023-06-10T09:57:24;10.43;;;6.28;;
13989;SDS011;7069;52.528;13.316;2023-06-10T09:59:52;6.43;;;5.68;;
13989;SDS011;7069;52.528;13.316;2023-06-10T10:02:18;6.65;;;5.70;;
13989;SDS011;7069;52.528;13.316;2023-06-10T10:04:46;8.02;;;5.68;;
13989;SDS011;7069;52.528;13.316;2023-06-10T10:07:13;9.57;;;5.80;;
13989;SDS011;7069;52.528;13.316;2023-06-10T10:09:40;8.32;;;7.15;;
13989;SDS011;7069;52.528;13.316;2023-06-10T10:12:08;8.82;;;6.65;;
13989;SDS011;7069;52.528;13.316;2023-06-10T10:14:35;11.48;;;7.78;;
13989;SDS011;7069;52.528;13.316;2023-06-10T10:17:02;8.05;;;7.25;;
13989;SDS011;7069;52.528;13.316;2023-06-10T10:19:31;8.70;;;6.43;;
13989;SDS011;7069;52.528;13.316;2023-06-10T10:22:01;7.20;;;6.50;;
13989;SDS011;7069;52.528;13.316;2023-06-10T10:24:30;10.23;;;7.07;;
13989;SDS011;7069;52.528;13.316;2023-06-10T10:26:59;8.23;;;6.53;;
13989;SDS011;7069;52.528;13.316;2023-06-10T10:29:28;7.43;;;6.45;;
13989;SDS011;7069;52.528;13.316;2023-06-10T10:31:56;9.27;;;7.10;;
13989;SDS011;7069;52.528;13.316;2023-06-10T10:34:27;10.85;;;6.72;;
13989;SDS011;7069;52.528;13.316;2023-06-10T10:36:56;9.30;;;6.47;;
13989;SDS011;7069;52.528;13.316;2023-06-10T10:39:24;7.28;;;6.20;;
13989;SDS011;7069;52.528;13.316;2023-06-10T10:41:53;9.50;;;5.97;;
13989;SDS011;7069;52.528;13.316;2023-06-10T10:44:20;6.45;;;5.85;;
13989;SDS011;7069;52.528;13.316;2023-06-10T10:46:48;11.05;;;6.35;;
13989;SDS011;7069;52.528;13.316;2023-06-10T10:49:15;7.20;;;5.55;;
13989;SDS011;7069;52.528;13.316;2023-06-10T10:51:54;5.80;;;5.28;;
13989;SDS011;7069;52.528;13.316;2023-06-10T10:54:21;6.35;;;5.10;;
13989;SDS011;7069;52.528;13.316;2023-06-10T10:57:10;7.95;;;5.47;;
13989;SDS011;7069;52.528;13.316;2023-06-10T10:59:44;5.45;;;4.55;;
13989;SDS011;7069;52.528;13.316;2023-06-10T11:02:10;6.38;;;5.20;;
13989;SDS011;7069;52.528;13.316;2023-06-10T11:04:44;4.90;;;4.50;;
13989;SDS011;7069;52.528;13.316;2023-06-10T11:07:10;5.78;;;4.93;;
13989;SDS011;7069;52.528;13.316;2023-06-10T11:09:40;6.85;;;4.63;;
13989;SDS011;7069;52.528;13.316;2023-06-10T11:12:24;5.30;;;4.80;;
13989;SDS011;7069;52.528;13.316;2023-06-10T11:14:53;6.45;;;5.43;;
13989;SDS011;7069;52.528;13.316;2023-06-10T11:17:20;5.05;;;4.75;;
13989;SDS011;7069;52.528;13.316;2023-06-10T11:19:47;4.47;;;4.13;;
13989;SDS011;7069;52.528;13.316;2023-06-10T11:22:16;8.00;;;5.88;;
13989;SDS011;7069;52.528;13.316;2023-06-10T11:24:46;5.22;;;4.72;;
13989;SDS011;7069;52.528;13.316;2023-06-10T11:27:16;4.60;;;4.20;;
13989;SDS011;7069;52.528;13.316;2023-06-10T11:29:57;4.50;;;4.20;;
13989;SDS011;7069;52.528;13.316;2023-06-10T11:32:25;4.60;;;4.03;;
13989;SDS011;7069;52.528;13.316;2023-06-10T11:34:55;5.25;;;4.75;;
13989;SDS011;7069;52.528;13.316;2023-06-10T11:37:21;5.43;;;4.93;;
13989;SDS011;7069;52.528;13.316;2023-06-10T11:39:51;5.22;;;4.72;;
13989;SDS011;7069;52.528;13.316;2023-06-10T11:42:17;4.80;;;4.47;;
13989;SDS011;7069;52.528;13.316;2023-06-10T11:44:47;5.63;;;5.15;;
13989;SDS011;7069;52.528;13.316;2023-06-10T11:47:14;5.88;;;5.05;;
13989;SDS011;7069;52.528;13.316;2023-06-10T11:49:41;6.03;;;5.07;;
13989;SDS011;7069;52.528;13.316;2023-06-10T11:52:07;5.60;;;4.85;;
13989;SDS011;7069;52.528;13.316;2023-06-10T11:54:34;5.60;;;5.18;;
13989;SDS011;7069;52.528;13.316;2023-06-10T11:57:00;5.20;;;4.70;;
13989;SDS011;7069;52.528;13.316;2023-06-10T11:59:28;4.90;;;4.50;;
13989;SDS011;7069;52.528;13.316;2023-06-10T12:01:55;9.82;;;6.68;;
13989;SDS011;7069;52.528;13.316;2023-06-10T12:04:22;5.80;;;5.20;;
13989;SDS011;7069;52.528;13.316;2023-06-10T12:06:52;7.65;;;4.78;;
13989;SDS011;7069;52.528;13.316;2023-06-10T12:09:19;5.53;;;5.05;;
13989;SDS011;7069;52.528;13.316;2023-06-10T12:11:48;5.32;;;4.93;;
13989;SDS011;7069;52.528;13.316;2023-06-10T12:14:15;5.75;;;5.22;;
13989;SDS011;7069;52.528;13.316;2023-06-10T12:16:47;5.78;;;5.35;;
13989;SDS011;7069;52.528;13.316;2023-06-10T12:19:14;5.05;;;4.65;;
13989;SDS011;7069;52.528;13.316;2023-06-10T12:21:42;6.63;;;5.57;;
13989;SDS011;7069;52.528;13.316;2023-06-10T12:24:08;5.63;;;5.10;;
13989;SDS011;7069;52.528;13.316;2023-06-10T12:26:39;5.65;;;5.15;;
13989;SDS011;7069;52.528;13.316;2023-06-10T12:29:13;6.80;;;5.95;;
13989;SDS011;7069;52.528;13.316;2023-06-10T12:31:52;5.80;;;5.15;;
13989;SDS011;7069;52.528;13.316;2023-06-10T12:34:18;5.72;;;5.22;;
13989;SDS011;7069;52.528;13.316;2023-06-10T12:36:48;5.47;;;5.00;;
13989;SDS011;7069;52.528;13.316;2023-06-10T12:39:15;7.22;;;5.05;;
13989;SDS011;7069;52.528;13.316;2023-06-10T12:41:46;6.72;;;4.63;;
13989;SDS011;7069;52.528;13.316;2023-06-10T12:44:13;6.63;;;4.82;;
13989;SDS011;7069;52.528;13.316;2023-06-10T12:46:39;5.20;;;4.70;;
13989;SDS011;7069;52.528;13.316;2023-06-10T12:49:06;5.30;;;4.90;;
13989;SDS011;7069;52.528;13.316;2023-06-10T12:51:32;4.45;;;4.10;;
13989;SDS011;7069;52.528;13.316;2023-06-10T12:54:02;4.75;;;4.45;;
13989;SDS011;7069;52.528;13.316;2023-06-10T12:56:28;6.03;;;5.45;;
13989;SDS011;7069;52.528;13.316;2023-06-10T12:58:54;7.78;;;6.00;;
13989;SDS011;7069;52.528;13.316;2023-06-10T13:01:21;6.88;;;6.20;;
13989;SDS011;7069;52.528;13.316;2023-06-10T13:03:47;7.55;;;6.25;;
13989;SDS011;7069;52.528;13.316;2023-06-10T13:06:13;7.65;;;6.93;;
13989;SDS011;7069;52.528;13.316;2023-06-10T13:08:41;7.45;;;6.72;;
13989;SDS011;7069;52.528;13.316;2023-06-10T13:11:09;6.80;;;6.10;;
13989;SDS011;7069;52.528;13.316;2023-06-10T13:13:36;9.80;;;7.07;;
13989;SDS011;7069;52.528;13.316;2023-06-10T13:16:02;7.97;;;7.38;;
13989;SDS011;7069;52.528;13.316;2023-06-10T13:18:29;6.45;;;5.95;;
13989;SDS011;7069;52.528;13.316;2023-06-10T13:20:55;11.75;;;7.30;;
13989;SDS011;7069;52.528;13.316;2023-06-10T13:23:22;7.38;;;6.63;;
13989;SDS011;7069;52.528;13.316;2023-06-10T13:25:48;8.50;;;7.63;;
13989;SDS011;7069;52.528;13.316;2023-06-10T13:28:16;8.07;;;7.38;;
13989;SDS011;7069;52.528;13.316;2023-06-10T13:30:42;8.15;;;7.40;;
13989;SDS011;7069;52.528;13.316;2023-06-10T13:33:09;8.43;;;7.72;;
13989;SDS011;7069;52.528;13.316;2023-06-10T13:35:35;14.05;;;8.32;;
13989;SDS011;7069;52.528;13.316;2023-06-10T13:38:02;11.25;;;7.43;;
13989;SDS011;7069;52.528;13.316;2023-06-10T13:40:28;9.60;;;7.80;;
13989;SDS011;7069;52.528;13.316;2023-06-10T13:42:55;8.02;;;7.10;;
13989;SDS011;7069;52.528;13.316;2023-06-10T13:45:22;7.78;;;7.07;;
13989;SDS011;7069;52.528;13.316;2023-06-10T13:47:49;9.18;;;7.13;;
13989;SDS011;7069;52.528;13.316;2023-06-10T13:50:16;7.60;;;6.90;;
13989;SDS011;7069;52.528;13.316;2023-06-10T13:52:42;7.82;;;6.78;;
13989;SDS011;7069;52.528;13.316;2023-06-10T13:55:09;7.18;;;6.57;;
13989;SDS011;7069;52.528;13.316;2023-06-10T13:57:35;8.48;;;6.75;;
13989;SDS011;7069;52.528;13.316;2023-06-10T14:00:02;6.88;;;6.28;;
13989;SDS011;7069;52.528;13.316;2023-06-10T14:02:31;8.07;;;7.20;;
13989;SDS011;7069;52.528;13.316;2023-06-10T14:04:58;7.35;;;6.75;;
13989;SDS011;7069;52.528;13.316;2023-06-10T14:07:24;7.90;;;7.10;;
13989;SDS011;7069;52.528;13.316;2023-06-10T14:09:51;8.43;;;7.47;;
13989;SDS011;7069;52.528;13.316;2023-06-10T14:12:18;7.10;;;6.50;;
13989;SDS011;7069;52.528;13.316;2023-06-10T14:14:44;8.10;;;7.30;;
13989;SDS011;7069;52.528;13.316;2023-06-10T14:17:11;7.53;;;6.93;;
13989;SDS011;7069;52.528;13.316;2023-06-10T14:19:39;8.90;;;7.93;;
13989;SDS011;7069;52.528;13.316;2023-06-10T14:22:06;10.60;;;7.03;;
13989;SDS011;7069;52.528;13.316;2023-06-10T14:24:33;7.70;;;6.97;;
13989;SDS011;7069;52.528;13.316;2023-06-10T14:27:00;7.53;;;6.65;;
13989;SDS011;7069;52.528;13.316;2023-06-10T14:29:26;8.13;;;7.10;;
13989;SDS011;7069;52.528;13.316;2023-06-10T14:31:54;7.13;;;6.53;;
13989;SDS011;7069;52.528;13.316;2023-06-10T14:34:20;6.35;;;5.85;;
13989;SDS011;7069;52.528;13.316;2023-06-10T14:36:49;7.30;;;6.32;;
13989;SDS011;7069;52.528;13.316;2023-06-10T14:39:16;7.10;;;5.78;;
13989;SDS011;7069;52.528;13.316;2023-06-10T14:41:42;6.40;;;5.85;;
13989;SDS011;7069;52.528;13.316;2023-06-10T14:44:08;6.85;;;6.25;;
13989;SDS011;7069;52.528;13.316;2023-06-10T14:46:35;5.78;;;5.18;;
13989;SDS011;7069;52.528;13.316;2023-06-10T14:49:01;6.95;;;6.38;;